Chimney Point, Vermont
Current Conditions -  °F | °C
As of 8:35 PM on Saturday 25 Oct 2014 (Local Time) from K6B0 Reporting Station
Overcast Overcast  
Wind Chill: 55°   Ceiling: 4300
Heat Index: 55°   Visibility: 10mi
Dew Point: 47°   Wind: 7mph
Humidity: 75%   Direction: 200°SSW
Pressure: 29.49"   Gusts: NA
Location:  44.0804°N, 73.3324°W
Report Text: K6B0 260035Z AUTO 20006KT 10SM SCT037 BKN043 OVC060 13/09 A2949 RMK AO2 T01280085
Loading
Personal Weather Stations






























Interactive Weather Map
Tropical Storm Tracking
New forecast layout! Learn more

10-Day Weather Forecast

Advertisements
Track Severe Weather on mobile